Time;durP1;ratioP1;P1;durP2;ratioP2;P2;SDS_P1;SDS_P2;PMS_P1;PMS_P2;Temp;Humidity;BMP_temperature;BMP_pressure;BME280_temperature;BME280_humidity;BME280_pressure;Samples;Min_cycle;Max_cycle;Signal;HPM_P1;HPM_P2
2023/07/04 00:00:35;;;;;;;1999.90;999.90;;;17.30;99.90;;;;;;5093068;28;20650;-67
2023/07/04 00:03:01;;;;;;;1999.90;999.90;;;17.20;99.90;;;;;;5093366;28;20903;-67
2023/07/04 00:05:26;;;;;;;1999.90;999.90;;;17.20;99.90;;;;;;5093325;28;20489;-68
2023/07/04 00:07:52;;;;;;;1999.90;999.90;;;17.10;99.90;;;;;;5093036;28;20838;-67
2023/07/04 00:10:20;;;;;;;1999.90;999.90;;;17.10;99.90;;;;;;5093270;28;20178;-68
2023/07/04 00:12:46;;;;;;;1999.90;999.90;;;17.10;99.90;;;;;;5092863;28;20646;-68
2023/07/04 00:15:13;;;;;;;1999.90;999.90;;;17.10;99.90;;;;;;5092929;28;20458;-68
2023/07/04 00:17:39;;;;;;;1999.90;999.90;;;17.10;99.90;;;;;;5092794;28;20872;-68
2023/07/04 00:20:06;;;;;;;1999.90;999.90;;;17.00;99.90;;;;;;5092597;28;20455;-68
2023/07/04 00:22:33;;;;;;;1999.90;999.90;;;17.00;99.90;;;;;;5092550;28;20434;-68
2023/07/04 00:24:59;;;;;;;1999.90;999.90;;;17.00;99.90;;;;;;5092743;28;20955;-67
2023/07/04 00:27:25;;;;;;;1999.90;999.90;;;17.00;99.90;;;;;;5092615;28;20426;-68
2023/07/04 00:29:50;;;;;;;1999.90;999.90;;;16.90;99.90;;;;;;5092733;28;20170;-68
2023/07/04 00:32:16;;;;;;;1999.90;999.90;;;17.00;99.90;;;;;;5092534;28;20627;-68
2023/07/04 00:34:45;;;;;;;1999.90;999.90;;;16.90;99.90;;;;;;5092551;28;20168;-68
2023/07/04 00:37:11;;;;;;;1999.90;999.90;;;16.90;99.90;;;;;;5092599;28;20925;-68
2023/07/04 00:39:37;;;;;;;1999.90;999.90;;;16.90;99.90;;;;;;5092703;28;20420;-67
2023/07/04 00:42:07;;;;;;;1999.90;999.90;;;16.80;99.90;;;;;;5091529;28;20445;-68
2023/07/04 00:44:37;;;;;;;1999.90;999.90;;;16.80;99.90;;;;;;5092577;28;20228;-67
2023/07/04 00:47:10;;;;;;;1999.90;999.90;;;16.70;99.90;;;;;;5092573;28;20438;-68
2023/07/04 00:49:42;;;;;;;1999.90;999.90;;;16.70;99.90;;;;;;5092385;28;20423;-68
2023/07/04 00:52:23;;;;;;;1999.90;999.90;;;16.60;99.90;;;;;;5092566;28;20394;-67
2023/07/04 00:54:53;;;;;;;1999.90;999.90;;;16.60;99.90;;;;;;5092284;28;20810;-68
2023/07/04 00:57:25;;;;;;;1999.90;999.90;;;16.60;99.90;;;;;;5092289;28;20940;-68
2023/07/04 00:59:57;;;;;;;1999.90;999.90;;;16.60;99.90;;;;;;5092292;28;20457;-68
2023/07/04 01:02:34;;;;;;;1999.90;999.90;;;16.50;99.90;;;;;;5092295;28;20920;-68
2023/07/04 01:05:03;;;;;;;1999.90;999.90;;;16.50;99.90;;;;;;5092378;28;20388;-68
2023/07/04 01:07:36;;;;;;;1999.90;999.90;;;16.40;99.90;;;;;;5092176;28;20432;-69
2023/07/04 01:10:23;;;;;;;1999.90;999.90;;;16.40;99.90;;;;;;5092674;28;20872;-68
2023/07/04 01:12:49;;;;;;;1999.90;999.90;;;16.30;99.90;;;;;;5093130;28;20398;-68
2023/07/04 01:15:16;;;;;;;1999.90;999.90;;;16.30;99.90;;;;;;5093325;28;20825;-68
2023/07/04 01:17:42;;;;;;;1999.90;999.90;;;16.30;99.90;;;;;;5093042;28;20187;-68
2023/07/04 01:20:11;;;;;;;1999.90;999.90;;;16.30;99.90;;;;;;5092916;28;20409;-68
2023/07/04 01:22:55;;;;;;;1999.90;999.90;;;16.20;99.90;;;;;;5092034;28;20937;-67
2023/07/04 01:25:33;;;;;;;1999.90;999.90;;;16.20;99.90;;;;;;5091915;28;20979;-68
2023/07/04 01:28:02;;;;;;;1999.90;999.90;;;16.10;99.90;;;;;;5092336;28;20921;-68
2023/07/04 01:30:31;;;;;;;1999.90;999.90;;;16.10;99.90;;;;;;5092060;28;20410;-68
2023/07/04 01:32:59;;;;;;;1999.90;999.90;;;16.10;99.90;;;;;;5092119;28;20823;-68
2023/07/04 01:35:26;;;;;;;1999.90;999.90;;;15.80;99.90;;;;;;5091890;28;20509;-68
2023/07/04 01:37:53;;;;;;;1999.90;999.90;;;16.10;99.90;;;;;;5092083;28;20400;-68
2023/07/04 01:40:20;;;;;;;1999.90;999.90;;;16.00;99.90;;;;;;5092164;28;20481;-67
2023/07/04 01:42:49;;;;;;;1999.90;999.90;;;16.00;99.90;;;;;;5092065;28;20397;-68
2023/07/04 01:45:14;;;;;;;1999.90;999.90;;;16.00;99.90;;;;;;5093252;28;20772;-68
2023/07/04 01:47:40;;;;;;;1999.90;999.90;;;16.00;99.90;;;;;;5093425;28;20436;-68
2023/07/04 01:50:08;;;;;;;1999.90;999.90;;;16.00;99.90;;;;;;5093386;28;20569;-68
2023/07/04 01:52:33;;;;;;;1999.90;999.90;;;15.90;99.90;;;;;;5092646;28;20175;-69
2023/07/04 01:54:59;;;;;;;1999.90;999.90;;;15.90;99.90;;;;;;5096268;28;20411;-68
2023/07/04 01:57:25;;;;;;;1999.90;999.90;;;15.90;99.90;;;;;;5096668;28;20278;-68
2023/07/04 01:59:51;;;;;;;1999.90;999.90;;;15.90;99.90;;;;;;5096793;28;20238;-68
2023/07/04 02:02:17;;;;;;;1999.90;999.90;;;15.90;99.90;;;;;;5096473;28;20412;-68
2023/07/04 02:04:43;;;;;;;1999.90;999.90;;;15.80;99.90;;;;;;5096446;28;20173;-68
2023/07/04 02:07:08;;;;;;;1999.90;999.90;;;15.80;99.90;;;;;;5096468;28;20434;-67
2023/07/04 02:09:34;;;;;;;1999.90;999.90;;;15.80;99.90;;;;;;5096489;28;20172;-68
2023/07/04 02:11:59;;;;;;;1999.90;999.90;;;15.80;99.90;;;;;;5095763;28;20224;-69
2023/07/04 02:14:25;;;;;;;1999.90;999.90;;;15.70;99.90;;;;;;5096147;28;20656;-68
2023/07/04 02:16:51;;;;;;;1999.90;999.90;;;15.70;99.90;;;;;;5095912;28;20215;-68
2023/07/04 02:19:17;;;;;;;1999.90;999.90;;;15.70;99.90;;;;;;5096004;28;20191;-68
2023/07/04 02:21:43;;;;;;;1999.90;999.90;;;15.70;99.90;;;;;;5096077;28;20427;-68
2023/07/04 02:24:09;;;;;;;1999.90;999.90;;;15.60;99.90;;;;;;5095991;28;20954;-68
2023/07/04 02:26:35;;;;;;;1999.90;999.90;;;15.60;99.90;;;;;;5096006;28;20426;-68
2023/07/04 02:29:00;;;;;;;1999.90;999.90;;;15.60;99.90;;;;;;5095922;28;20186;-68
2023/07/04 02:31:26;;;;;;;1999.90;999.90;;;15.50;99.90;;;;;;5095800;28;20553;-68
2023/07/04 02:33:52;;;;;;;1999.90;999.90;;;15.50;99.90;;;;;;5095550;28;20175;-68
2023/07/04 02:36:18;;;;;;;1999.90;999.90;;;15.50;99.90;;;;;;5096148;28;20197;-68
2023/07/04 02:38:44;;;;;;;1999.90;999.90;;;15.50;99.90;;;;;;5095916;28;20403;-69
2023/07/04 02:41:10;;;;;;;1999.90;999.90;;;15.50;99.90;;;;;;5095301;28;20407;-68
2023/07/04 02:43:36;;;;;;;1999.90;999.90;;;15.40;99.90;;;;;;5095902;28;20405;-68
2023/07/04 02:46:03;;;;;;;1999.90;999.90;;;15.40;99.90;;;;;;5095720;28;20193;-68
2023/07/04 02:48:30;;;;;;;1999.90;999.90;;;15.40;99.90;;;;;;5095902;28;20410;-68
2023/07/04 02:50:56;;;;;;;1999.90;999.90;;;15.40;99.90;;;;;;5095413;28;20494;-68
2023/07/04 02:53:22;;;;;;;1999.90;999.90;;;15.30;99.90;;;;;;5095783;28;20535;-69
2023/07/04 02:55:48;;;;;;;1999.90;999.90;;;15.40;99.90;;;;;;5095004;28;20210;-67
2023/07/04 02:58:14;;;;;;;1999.90;999.90;;;15.30;99.90;;;;;;5095229;28;20404;-68
2023/07/04 03:00:41;;;;;;;1999.90;999.90;;;15.30;99.90;;;;;;5094998;28;21010;-68
2023/07/04 03:03:07;;;;;;;1999.90;999.90;;;15.30;99.90;;;;;;5094746;28;21073;-67
2023/07/04 03:05:34;;;;;;;1999.90;999.90;;;15.30;99.90;;;;;;5093937;28;20410;-69
2023/07/04 03:07:59;;;;;;;1999.90;999.90;;;15.30;99.90;;;;;;5094932;28;20402;-69
2023/07/04 03:10:25;;;;;;;1999.90;999.90;;;15.20;99.90;;;;;;5094908;28;20419;-68
2023/07/04 03:12:51;;;;;;;1999.90;999.90;;;15.30;99.90;;;;;;5094312;28;20253;-68
2023/07/04 03:15:17;;;;;;;1999.90;999.90;;;15.20;99.90;;;;;;5094511;28;20215;-68
2023/07/04 03:17:43;;;;;;;1999.90;999.90;;;15.20;99.90;;;;;;5094568;28;20612;-68
2023/07/04 03:20:10;;;;;;;1999.90;999.90;;;15.10;99.90;;;;;;5094858;28;20399;-68
2023/07/04 03:22:44;;;;;;;1999.90;999.90;;;15.20;99.90;;;;;;5094113;28;20475;-69
2023/07/04 03:25:10;;;;;;;1999.90;999.90;;;15.10;99.90;;;;;;5094367;28;20415;-68
2023/07/04 03:27:38;;;;;;;1999.90;999.90;;;15.10;99.90;;;;;;5094527;28;20931;-69
2023/07/04 03:30:06;;;;;;;1999.90;999.90;;;15.10;99.90;;;;;;5094368;28;20406;-69
2023/07/04 03:32:31;;;;;;;1999.90;999.90;;;15.10;99.90;;;;;;5093133;28;20415;-68
2023/07/04 03:35:01;;;;;;;1999.90;999.90;;;15.10;99.90;;;;;;5093375;28;20415;-67
2023/07/04 03:37:31;;;;;;;1999.90;999.90;;;15.10;99.90;;;;;;5093366;28;20435;-68
2023/07/04 03:39:57;;;;;;;1999.90;999.90;;;15.10;99.90;;;;;;5093330;28;20408;-67
2023/07/04 03:42:24;;;;;;;1999.90;999.90;;;15.00;99.90;;;;;;5092975;28;20393;-68
2023/07/04 03:44:50;;;;;;;1999.90;999.90;;;15.00;99.90;;;;;;5093267;28;20922;-68
2023/07/04 03:47:16;;;;;;;1999.90;999.90;;;15.00;99.90;;;;;;5093216;28;20433;-67
2023/07/04 03:49:42;;;;;;;1999.90;999.90;;;15.00;99.90;;;;;;5093230;28;20964;-68
2023/07/04 03:52:08;;;;;;;1999.90;999.90;;;15.00;99.90;;;;;;5092890;28;20176;-68
2023/07/04 03:54:33;;;;;;;1999.90;999.90;;;15.00;99.90;;;;;;5093065;28;21311;-67
2023/07/04 03:57:00;;;;;;;1999.90;999.90;;;15.00;99.90;;;;;;5092878;28;20233;-68
2023/07/04 03:59:25;;;;;;;1999.90;999.90;;;15.00;99.90;;;;;;5092994;28;20174;-68
2023/07/04 04:01:51;;;;;;;1999.90;999.90;;;15.00;99.90;;;;;;5092649;28;20407;-68
2023/07/04 04:04:16;;;;;;;1999.90;999.90;;;15.00;99.90;;;;;;5092855;28;20198;-68
2023/07/04 04:06:42;;;;;;;1999.90;999.90;;;15.00;99.90;;;;;;5092882;28;20612;-67
2023/07/04 04:09:07;;;;;;;1999.90;999.90;;;15.00;99.90;;;;;;5092759;28;20180;-68
2023/07/04 04:11:33;;;;;;;1999.90;999.90;;;15.00;99.90;;;;;;5092449;28;20183;-68
2023/07/04 04:13:59;;;;;;;1999.90;999.90;;;15.00;99.90;;;;;;5092976;28;20681;-68
2023/07/04 04:16:24;;;;;;;1999.90;999.90;;;15.10;99.90;;;;;;5092330;28;20206;-68
2023/07/04 04:18:51;;;;;;;1999.90;999.90;;;15.10;99.90;;;;;;5092658;28;20567;-68
2023/07/04 04:21:17;;;;;;;1999.90;999.90;;;15.10;99.90;;;;;;5092197;28;20529;-68
2023/07/04 04:23:43;;;;;;;1999.90;999.90;;;15.10;99.90;;;;;;5092495;28;20417;-68
2023/07/04 04:26:09;;;;;;;1999.90;999.90;;;15.10;99.90;;;;;;5092704;28;20426;-68
2023/07/04 04:28:35;;;;;;;1999.90;999.90;;;15.10;99.90;;;;;;5092502;28;20860;-68
2023/07/04 04:31:01;;;;;;;1999.90;999.90;;;15.20;99.90;;;;;;5092854;28;20413;-68
2023/07/04 04:33:26;;;;;;;1999.90;999.90;;;15.20;99.90;;;;;;5093666;28;20664;-68
2023/07/04 04:35:52;;;;;;;1999.90;999.90;;;15.20;99.90;;;;;;5092977;28;20459;-68
2023/07/04 04:38:17;;;;;;;1999.90;999.90;;;15.30;99.90;;;;;;5093317;28;20197;-68
2023/07/04 04:40:43;;;;;;;1999.90;999.90;;;15.40;99.90;;;;;;5092969;28;20197;-68
2023/07/04 04:43:09;;;;;;;1999.90;999.90;;;15.30;99.90;;;;;;5092568;28;20263;-68
2023/07/04 04:45:35;;;;;;;1999.90;999.90;;;15.10;99.90;;;;;;5092412;28;20660;-68
2023/07/04 04:48:01;;;;;;;1999.90;999.90;;;15.30;99.90;;;;;;5092671;28;20778;-68
2023/07/04 04:50:30;;;;;;;1999.90;999.90;;;15.40;99.90;;;;;;5092442;28;20506;-68
2023/07/04 04:52:57;;;;;;;1999.90;999.90;;;15.40;99.90;;;;;;5092376;28;20445;-67
2023/07/04 04:55:23;;;;;;;1999.90;999.90;;;15.40;99.90;;;;;;5092168;28;20454;-68
2023/07/04 04:57:49;;;;;;;1999.90;999.90;;;15.40;99.90;;;;;;5092197;28;20403;-68
2023/07/04 05:00:16;;;;;;;1999.90;999.90;;;15.40;99.90;;;;;;5092193;28;20441;-67
2023/07/04 05:02:44;;;;;;;1999.90;999.90;;;15.40;99.90;;;;;;5090891;28;20420;-68
2023/07/04 05:05:11;;;;;;;1999.90;999.90;;;15.40;99.90;;;;;;5092111;28;20414;-67
2023/07/04 05:07:36;;;;;;;1999.90;999.90;;;15.40;99.90;;;;;;5091886;28;20427;-68
2023/07/04 05:10:02;;;;;;;1999.90;999.90;;;15.50;99.90;;;;;;5092505;28;20468;-68
2023/07/04 05:12:28;;;;;;;1999.90;999.90;;;15.50;99.90;;;;;;5092887;28;20807;-68
2023/07/04 05:14:54;;;;;;;1999.90;999.90;;;15.60;99.90;;;;;;5093382;28;20460;-68
2023/07/04 05:17:20;;;;;;;1999.90;999.90;;;15.50;99.90;;;;;;5093125;28;20441;-68
2023/07/04 05:19:49;;;;;;;1999.90;999.90;;;15.60;99.90;;;;;;5092796;28;20173;-68
2023/07/04 05:22:15;;;;;;;1999.90;999.90;;;15.70;99.90;;;;;;5092711;28;20190;-68
2023/07/04 05:24:41;;;;;;;1999.90;999.90;;;15.70;99.90;;;;;;5093557;28;20766;-68
2023/07/04 05:27:07;;;;;;;1999.90;999.90;;;15.80;99.90;;;;;;5091998;28;20547;-68
2023/07/04 05:29:33;;;;;;;1999.90;999.90;;;15.90;99.90;;;;;;5094966;28;20220;-68
2023/07/04 05:31:58;;;;;;;1999.90;999.90;;;16.00;99.90;;;;;;5095702;28;20470;-67
2023/07/04 05:34:24;;;;;;;1999.90;999.90;;;16.00;99.90;;;;;;5095805;28;20230;-68
2023/07/04 05:36:49;;;;;;;1999.90;999.90;;;16.10;99.90;;;;;;5095587;28;20214;-68
2023/07/04 05:39:15;;;;;;;1999.90;999.90;;;16.20;99.90;;;;;;5097140;28;20256;-69
2023/07/04 05:41:41;;;;;;;1999.90;999.90;;;16.20;99.90;;;;;;5096703;28;20172;-68
2023/07/04 05:44:08;;;;;;;1999.90;999.90;;;16.20;99.90;;;;;;5097145;28;20563;-68
2023/07/04 05:46:35;;;;;;;1999.90;999.90;;;16.20;99.90;;;;;;5096782;28;20275;-68
2023/07/04 05:49:01;;;;;;;1999.90;999.90;;;16.20;99.90;;;;;;5096788;28;20443;-68
2023/07/04 05:51:30;;;;;;;1999.90;999.90;;;16.30;99.90;;;;;;5096555;28;20497;-69
2023/07/04 05:53:55;;;;;;;1999.90;999.90;;;16.40;99.90;;;;;;5096988;28;20495;-69
2023/07/04 05:56:24;;;;;;;1999.90;999.90;;;16.40;99.90;;;;;;5096282;28;20552;-68
2023/07/04 05:58:54;;;;;;;1999.90;999.90;;;16.40;99.90;;;;;;5096064;28;20173;-68
2023/07/04 06:01:21;;;;;;;1999.90;999.90;;;16.40;99.90;;;;;;5096512;28;20434;-67
2023/07/04 06:03:47;;;;;;;1999.90;999.90;;;16.40;99.90;;;;;;5096439;28;20415;-68
2023/07/04 06:06:19;;;;;;;1999.90;999.90;;;16.40;99.90;;;;;;5096778;28;20792;-68
2023/07/04 06:08:45;;;;;;;1999.90;999.90;;;16.40;99.90;;;;;;5096794;28;20421;-68
2023/07/04 06:11:11;;;;;;;1999.90;999.90;;;16.50;99.90;;;;;;5096072;28;20494;-68
2023/07/04 06:13:37;;;;;;;1999.90;999.90;;;16.50;99.90;;;;;;5096557;28;20443;-68
2023/07/04 06:16:04;;;;;;;1999.90;999.90;;;16.40;99.90;;;;;;5096093;28;20212;-68
2023/07/04 06:18:30;;;;;;;1999.90;999.90;;;16.50;99.90;;;;;;5096352;28;20521;-68
2023/07/04 06:21:25;;;;;;;1999.90;999.90;;;16.50;99.90;;;;;;5096109;28;20407;-68
2023/07/04 06:23:57;;;;;;;1999.90;999.90;;;16.60;99.90;;;;;;5091229;28;20438;-68
2023/07/04 06:26:24;;;;;;;1999.90;999.90;;;16.70;99.90;;;;;;5096798;28;20432;-68
2023/07/04 06:28:50;;;;;;;1999.90;999.90;;;16.80;99.90;;;;;;5096217;28;20437;-68
2023/07/04 06:31:17;;;;;;;1999.90;999.90;;;16.80;99.90;;;;;;5095970;28;20415;-68
2023/07/04 06:33:43;;;;;;;1999.90;999.90;;;16.70;99.90;;;;;;5096512;28;20174;-69
2023/07/04 06:36:14;;;;;;;1999.90;999.90;;;16.80;99.90;;;;;;5096085;28;20518;-68
2023/07/04 06:38:40;;;;;;;1999.90;999.90;;;16.90;99.90;;;;;;5096732;28;20797;-68
2023/07/04 06:41:08;;;;;;;1999.90;999.90;;;16.80;99.90;;;;;;5093935;28;20470;-68
2023/07/04 06:43:34;;;;;;;1999.90;999.90;;;16.70;99.90;;;;;;5094467;28;20407;-68
2023/07/04 06:46:00;;;;;;;1999.90;999.90;;;16.70;99.90;;;;;;5094512;28;20974;-68
2023/07/04 06:48:27;;;;;;;1999.90;999.90;;;16.60;99.90;;;;;;5094373;28;20202;-68
2023/07/04 06:51:01;;;;;;;1999.90;999.90;;;16.70;99.90;;;;;;5094196;28;20433;-67
2023/07/04 06:53:28;;;;;;;1999.90;999.90;;;16.70;99.90;;;;;;5094284;28;20429;-68
2023/07/04 06:56:02;;;;;;;1999.90;999.90;;;16.80;99.90;;;;;;5093991;28;20489;-68
2023/07/04 06:58:28;;;;;;;1999.90;999.90;;;16.80;99.90;;;;;;5101470;28;20454;-68
2023/07/04 07:00:56;;;;;;;1999.90;999.90;;;16.80;99.90;;;;;;5104201;28;20412;-68
2023/07/04 07:03:22;;;;;;;1999.90;999.90;;;16.80;99.90;;;;;;5096351;28;20638;-68
2023/07/04 07:05:48;;;;;;;1999.90;999.90;;;16.80;99.90;;;;;;5095721;28;20442;-68
2023/07/04 07:08:16;;;;;;;1999.90;999.90;;;16.80;99.90;;;;;;5096298;28;20412;-68
2023/07/04 07:10:54;;;;;;;1999.90;999.90;;;16.90;99.90;;;;;;5095835;28;20183;-68
2023/07/04 07:13:20;;;;;;;1999.90;999.90;;;16.90;99.90;;;;;;5095832;28;20409;-68
2023/07/04 07:15:45;;;;;;;1999.90;999.90;;;16.90;99.90;;;;;;5095528;28;20490;-69
2023/07/04 07:18:11;;;;;;;1999.90;999.90;;;17.00;99.90;;;;;;5095696;28;20174;-68
2023/07/04 07:20:37;;;;;;;1999.90;999.90;;;17.10;99.90;;;;;;5096001;28;20173;-68
2023/07/04 07:23:02;;;;;;;1999.90;999.90;;;17.20;99.90;;;;;;5095228;28;20549;-68
2023/07/04 07:25:28;;;;;;;1999.90;999.90;;;17.30;99.90;;;;;;5095608;28;20253;-68
2023/07/04 07:27:53;;;;;;;1999.90;999.90;;;17.40;99.90;;;;;;5095797;28;20173;-68
2023/07/04 07:30:19;;;;;;;1999.90;999.90;;;17.50;99.90;;;;;;5096139;28;20636;-68
2023/07/04 07:32:44;;;;;;;1999.90;999.90;;;17.60;99.90;;;;;;5096000;28;20171;-68
2023/07/04 07:35:10;;;;;;;1999.90;999.90;;;17.80;99.90;;;;;;5095711;28;20339;-69
2023/07/04 07:37:37;;;;;;;1999.90;999.90;;;17.90;99.90;;;;;;5095605;28;20191;-68
2023/07/04 07:40:03;;;;;;;1999.90;999.90;;;18.00;99.90;;;;;;5095673;28;20174;-68
2023/07/04 07:42:30;;;;;;;1999.90;999.90;;;18.10;99.90;;;;;;5095261;28;20409;-68
2023/07/04 07:44:56;;;;;;;1999.90;999.90;;;18.10;99.90;;;;;;5095477;28;20397;-69
2023/07/04 07:47:22;;;;;;;1999.90;999.90;;;18.20;99.90;;;;;;5095173;28;20836;-69
2023/07/04 07:49:47;;;;;;;1999.90;999.90;;;18.40;99.90;;;;;;5095897;28;20182;-68
2023/07/04 07:52:13;;;;;;;1999.90;999.90;;;18.50;99.90;;;;;;5096308;28;20175;-69
2023/07/04 07:54:39;;;;;;;1999.90;999.90;;;18.40;99.90;;;;;;5097361;28;20179;-68
2023/07/04 07:57:05;;;;;;;1999.90;999.90;;;18.40;99.90;;;;;;5098081;28;20228;-68
2023/07/04 07:59:30;;;;;;;1999.90;999.90;;;18.50;99.90;;;;;;5098018;28;20167;-68
2023/07/04 08:01:57;;;;;;;1999.90;999.90;;;18.50;99.90;;;;;;5097519;28;20397;-69
2023/07/04 08:04:23;;;;;;;1999.90;999.90;;;18.50;99.90;;;;;;5096997;28;20171;-68
2023/07/04 08:06:48;;;;;;;1999.90;999.90;;;18.50;99.90;;;;;;5097782;28;20472;-68
2023/07/04 08:09:17;;;;;;;1999.90;999.90;;;18.50;99.90;;;;;;5097628;28;20174;-69
2023/07/04 08:11:48;;;;;;;1999.90;999.90;;;18.60;99.90;;;;;;5097764;28;20397;-69
2023/07/04 08:14:14;;;;;;;1999.90;999.90;;;18.60;99.90;;;;;;5097469;28;20497;-69
2023/07/04 08:16:49;;;;;;;1999.90;999.90;;;18.60;99.90;;;;;;5096766;28;20535;-68
2023/07/04 08:19:17;;;;;;;1999.90;999.90;;;18.70;99.90;;;;;;5096305;28;20405;-68
2023/07/04 08:21:43;;;;;;;1999.90;999.90;;;18.90;99.90;;;;;;5096708;28;20419;-68
2023/07/04 08:24:12;;;;;;;1999.90;999.90;;;19.00;99.90;;;;;;5096784;28;20403;-68
2023/07/04 08:26:39;;;;;;;1999.90;999.90;;;19.10;99.90;;;;;;5098869;28;20453;-68
2023/07/04 08:29:07;;;;;;;1999.90;999.90;;;18.80;99.90;;;;;;5098774;28;20422;-68
2023/07/04 08:31:33;;;;;;;1999.90;999.90;;;18.80;99.90;;;;;;5098194;28;20429;-68
2023/07/04 08:33:59;;;;;;;1999.90;999.90;;;18.90;99.90;;;;;;5097698;28;20420;-69
2023/07/04 08:36:25;;;;;;;1999.90;999.90;;;19.00;99.90;;;;;;5097803;28;20454;-68
2023/07/04 08:38:51;;;;;;;1999.90;999.90;;;19.00;99.90;;;;;;5097500;28;20475;-68
2023/07/04 08:41:21;;;;;;;1999.90;999.90;;;19.00;99.90;;;;;;5098863;28;20567;-68
2023/07/04 08:43:53;;;;;;;1999.90;999.90;;;19.10;99.90;;;;;;5096860;28;20402;-68
2023/07/04 08:46:20;;;;;;;1999.90;999.90;;;19.20;99.90;;;;;;5097204;28;20427;-69
2023/07/04 08:48:47;;;;;;;1999.90;999.90;;;19.20;99.90;;;;;;5097072;28;20411;-68
2023/07/04 08:51:20;;;;;;;1999.90;999.90;;;19.40;99.90;;;;;;5098360;28;20406;-69
2023/07/04 08:53:51;;;;;;;1999.90;999.90;;;19.40;99.90;;;;;;5096491;28;20909;-68
2023/07/04 08:56:36;;;;;;;1999.90;999.90;;;19.60;99.90;;;;;;5098079;28;20459;-68
2023/07/04 08:59:08;;;;;;;1999.90;999.90;;;19.60;99.90;;;;;;5097499;28;20901;-68
2023/07/04 09:02:12;;;;;;;1999.90;999.90;;;19.60;99.90;;;;;;5093163;28;20915;-68
2023/07/04 09:04:37;;;;;;;1999.90;999.90;;;19.70;99.90;;;;;;5079027;28;20474;-68
2023/07/04 09:07:23;;;;;;;1999.90;999.90;;;19.80;99.90;;;;;;5091846;28;20448;-68
2023/07/04 09:10:17;;;;;;;1999.90;999.90;;;19.80;99.90;;;;;;5092050;28;20172;-68
2023/07/04 09:12:44;;;;;;;1999.90;999.90;;;19.80;99.90;;;;;;5091391;28;20441;-68
2023/07/04 09:15:33;;;;;;;1999.90;999.90;;;19.80;99.90;;;;;;5093628;28;20421;-68
2023/07/04 09:18:03;;;;;;;1999.90;999.90;;;19.80;99.90;;;;;;5090627;28;20900;-68
2023/07/04 09:20:37;;;;;;;1999.90;999.90;;;20.00;99.90;;;;;;5093895;28;20419;-69
2023/07/04 09:23:11;;;;;;;1999.90;999.90;;;20.10;99.90;;;;;;5093505;28;20436;-69
2023/07/04 09:25:36;;;;;;;1999.90;999.90;;;20.30;99.90;;;;;;5093563;28;20497;-68
2023/07/04 09:28:02;;;;;;;1999.90;999.90;;;20.50;99.90;;;;;;5093179;28;20450;-68
2023/07/04 09:30:27;;;;;;;1999.90;999.90;;;20.60;99.90;;;;;;5093656;28;20202;-68
2023/07/04 09:32:53;;;;;;;1999.90;999.90;;;20.50;99.90;;;;;;5093722;28;20245;-68
2023/07/04 09:35:19;;;;;;;1999.90;999.90;;;20.60;99.90;;;;;;5093377;28;20267;-68
2023/07/04 09:38:00;;;;;;;1999.90;999.90;;;20.60;99.90;;;;;;5093933;28;20189;-68
2023/07/04 09:40:49;;;;;;;1999.90;999.90;;;20.60;99.90;;;;;;5093428;28;20233;-68
2023/07/04 09:43:32;;;;;;;1999.90;999.90;;;20.70;99.90;;;;;;5093575;28;20454;-68
2023/07/04 09:46:32;;;;;;;1999.90;999.90;;;21.00;99.90;;;;;;5093603;28;20472;-69
2023/07/04 09:49:26;;;;;;;1999.90;999.90;;;21.20;99.90;;;;;;5093295;28;20426;-68
2023/07/04 09:52:13;;;;;;;1999.90;999.90;;;21.00;99.90;;;;;;5093282;28;20413;-69
2023/07/04 09:54:43;;;;;;;1999.90;999.90;;;21.00;99.90;;;;;;5093670;28;20419;-68
2023/07/04 09:57:27;;;;;;;1999.90;999.90;;;21.10;99.90;;;;;;5093272;28;20469;-68
2023/07/04 09:59:54;;;;;;;1999.90;999.90;;;20.90;99.90;;;;;;5093636;28;20408;-68
2023/07/04 10:02:34;;;;;;;1999.90;999.90;;;20.90;99.90;;;;;;5092812;28;20453;-68
2023/07/04 10:05:00;;;;;;;1999.90;999.90;;;21.10;99.90;;;;;;5091470;28;20890;-68
2023/07/04 10:07:26;;;;;;;1999.90;999.90;;;21.10;99.90;;;;;;5092389;28;20774;-69
2023/07/04 10:09:56;;;;;;;1999.90;999.90;;;21.10;99.90;;;;;;5093226;28;20920;-68
2023/07/04 10:12:23;;;;;;;1999.90;999.90;;;21.10;99.90;;;;;;5092948;28;20648;-68
2023/07/04 10:14:53;;;;;;;1999.90;999.90;;;21.30;99.90;;;;;;5094752;28;20418;-68
2023/07/04 10:17:40;;;;;;;1999.90;999.90;;;21.40;99.90;;;;;;5096537;28;20462;-68
2023/07/04 10:20:12;;;;;;;1999.90;999.90;;;21.60;99.90;;;;;;5097031;28;20482;-68
2023/07/04 10:22:46;;;;;;;1999.90;999.90;;;21.30;97.20;;;;;;5096261;28;20427;-68
2023/07/04 10:25:21;;;;;;;1999.90;999.90;;;21.30;99.90;;;;;;5096925;28;20411;-68
2023/07/04 10:27:54;;;;;;;1999.90;999.90;;;21.40;99.20;;;;;;5096815;28;20402;-69
2023/07/04 10:30:29;;;;;;;1999.90;999.90;;;21.50;98.70;;;;;;5096651;28;20390;-68
2023/07/04 10:33:05;;;;;;;1999.90;999.90;;;21.60;99.50;;;;;;5096408;28;20430;-69
2023/07/04 10:35:34;;;;;;;1999.90;999.90;;;21.70;97.40;;;;;;5096869;28;20445;-68
2023/07/04 10:38:04;;;;;;;1999.90;999.90;;;21.80;96.60;;;;;;5096424;28;20406;-68
2023/07/04 10:40:35;;;;;;;1999.90;999.90;;;21.90;98.00;;;;;;5096689;28;20402;-68
2023/07/04 10:43:08;;;;;;;1999.90;999.90;;;22.10;98.30;;;;;;5095742;28;20438;-68
2023/07/04 10:45:35;;;;;;;1999.90;999.90;;;22.10;96.70;;;;;;5096395;28;20492;-68
2023/07/04 10:48:10;;;;;;;1999.90;999.90;;;22.30;96.80;;;;;;5096449;28;20399;-68
2023/07/04 10:50:55;;;;;;;1999.90;999.90;;;22.70;96.10;;;;;;5095952;28;20394;-68
2023/07/04 10:53:21;;;;;;;1999.90;999.90;;;22.80;94.00;;;;;;5095911;28;20430;-69
2023/07/04 10:56:05;;;;;;;1999.90;999.90;;;22.80;94.70;;;;;;5095576;28;20979;-69
2023/07/04 10:58:40;;;;;;;1999.90;999.90;;;23.10;90.80;;;;;;5096085;28;20769;-69
2023/07/04 11:01:22;;;;;;;1999.90;999.90;;;23.30;90.50;;;;;;5100202;28;20914;-68
2023/07/04 11:03:58;;;;;;;1999.90;999.90;;;23.40;85.50;;;;;;5097905;28;20412;-69
2023/07/04 11:06:38;;;;;;;1999.90;999.90;;;23.20;84.80;;;;;;5095569;28;20764;-69
2023/07/04 11:09:07;;;;;;;1999.90;999.90;;;23.30;90.90;;;;;;5095174;28;20410;-68
2023/07/04 11:11:33;;;;;;;1999.90;999.90;;;23.20;86.90;;;;;;5095460;28;20804;-69
2023/07/04 11:14:06;;;;;;;1999.90;999.90;;;23.00;91.60;;;;;;5095257;28;20383;-68
2023/07/04 11:16:39;;;;;;;1999.90;999.90;;;23.00;84.40;;;;;;5095477;28;20978;-69
2023/07/04 11:19:14;;;;;;;1999.90;999.90;;;23.10;85.00;;;;;;5095436;28;20396;-68
2023/07/04 11:21:55;;;;;;;1999.90;999.90;;;23.00;84.10;;;;;;5095063;28;20417;-68
2023/07/04 11:24:21;;;;;;;1999.90;999.90;;;23.00;79.60;;;;;;5095241;28;20401;-68
2023/07/04 11:27:08;;;;;;;1999.90;999.90;;;22.90;86.60;;;;;;5094377;28;20424;-68
2023/07/04 11:29:52;;;;;;;1999.90;999.90;;;22.80;83.70;;;;;;5095232;28;20426;-69
2023/07/04 11:32:35;;;;;;;1999.90;999.90;;;23.00;82.00;;;;;;5094857;28;20491;-68
2023/07/04 11:35:14;;;;;;;1999.90;999.90;;;23.20;76.90;;;;;;5095078;28;20397;-68
2023/07/04 11:37:51;;;;;;;1999.90;999.90;;;23.30;73.40;;;;;;5093787;28;20828;-69
2023/07/04 11:40:23;;;;;;;1999.90;999.90;;;23.20;74.70;;;;;;5095406;28;20746;-68
2023/07/04 11:42:58;;;;;;;1999.90;999.90;;;23.10;75.00;;;;;;5095179;28;20423;-68
2023/07/04 11:45:26;;;;;;;1999.90;999.90;;;23.00;73.10;;;;;;5094848;28;20408;-69
2023/07/04 11:47:54;;;;;;;1999.90;999.90;;;23.10;74.20;;;;;;5095087;28;20370;-69
2023/07/04 11:50:42;;;;;;;1999.90;999.90;;;23.50;72.10;;;;;;5094411;28;20389;-68
2023/07/04 11:53:24;;;;;;;1999.90;999.90;;;23.70;69.50;;;;;;5093692;28;20802;-69
2023/07/04 11:56:14;;;;;;;1999.90;999.90;;;23.80;68.50;;;;;;5093904;28;20448;-68
2023/07/04 11:58:40;;;;;;;1999.90;999.90;;;24.00;65.70;;;;;;5094312;28;20459;-68
2023/07/04 12:01:07;;;;;;;1999.90;999.90;;;24.00;66.60;;;;;;5094400;28;20371;-69
2023/07/04 12:03:45;;;;;;;1999.90;999.90;;;23.70;64.50;;;;;;5094215;28;20435;-69
2023/07/04 12:06:48;;;;;;;1999.90;999.90;;;23.70;63.00;;;;;;5093718;28;20443;-68
2023/07/04 12:09:22;;;;;;;1999.90;999.90;;;23.90;63.60;;;;;;5093287;28;20400;-68